Time;durP1;ratioP1;P1;durP2;ratioP2;P2;SDS_P1;SDS_P2;PMS_P1;PMS_P2;Temp;Humidity;BMP_temperature;BMP_pressure;BME280_temperature;BME280_humidity;BME280_pressure;Samples;Min_cycle;Max_cycle;Signal;HPM_P1;HPM_P2
2023/06/13 02:08:17;;;;;;;4.65;2.30;;;;;;;;;;5009968;27;20141;-65
2023/06/13 02:10:43;;;;;;;6.30;2.53;;;;;;;;;;4990652;28;20049;-62
2023/06/13 02:13:09;;;;;;;6.47;2.92;;;;;;;;;;4995095;28;20062;-63
2023/06/13 02:15:36;;;;;;;6.40;2.67;;;;;;;;;;5023259;28;20050;-63
2023/06/13 02:18:02;;;;;;;6.53;2.80;;;;;;;;;;4985907;28;20141;-63
2023/06/13 02:20:29;;;;;;;6.05;2.80;;;;;;;;;;5005828;28;20053;-64
2023/06/13 02:22:56;;;;;;;6.65;3.13;;;;;;;;;;4996559;28;20068;-67
2023/06/13 02:25:24;;;;;;;7.20;2.78;;;;;;;;;;4989612;28;20053;-65
2023/06/13 02:27:50;;;;;;;6.20;2.58;;;;;;;;;;4985730;28;20061;-65
2023/06/13 02:30:17;;;;;;;11.30;2.83;;;;;;;;;;4991718;28;20054;-64
2023/06/13 02:32:44;;;;;;;8.00;3.17;;;;;;;;;;4994934;28;20072;-64
2023/06/13 02:35:10;;;;;;;7.18;2.67;;;;;;;;;;4991976;28;20054;-63
2023/06/13 02:37:37;;;;;;;8.05;3.10;;;;;;;;;;4976132;28;20053;-65
2023/06/13 02:40:05;;;;;;;9.05;3.03;;;;;;;;;;4985941;28;20046;-63
2023/06/13 02:42:32;;;;;;;;;;;;;;;;;;4992806;28;20289;-65
2023/06/13 02:45:00;;;;;;;5.63;2.88;;;;;;;;;;4975699;28;19940;-64
2023/06/13 02:47:26;;;;;;;5.30;2.78;;;;;;;;;;4990259;28;20078;-64
2023/06/13 02:49:53;;;;;;;9.10;2.67;;;;;;;;;;5002747;28;20054;-65
2023/06/13 02:52:21;;;;;;;9.20;3.40;;;;;;;;;;4992057;28;20160;-63
2023/06/13 02:54:48;;;;;;;8.65;3.10;;;;;;;;;;5009510;28;20082;-64
2023/06/13 02:57:14;;;;;;;6.22;3.38;;;;;;;;;;5004786;28;20150;-64
2023/06/13 02:59:42;;;;;;;6.13;2.70;;;;;;;;;;5008569;28;20065;-64
2023/06/13 03:02:10;;;;;;;6.85;3.20;;;;;;;;;;5001842;28;21313;-64
2023/06/13 03:04:38;;;;;;;5.30;2.83;;;;;;;;;;4993024;28;20105;-63
2023/06/13 03:07:05;;;;;;;5.43;2.88;;;;;;;;;;4987146;28;20112;-63
2023/06/13 03:09:32;;;;;;;6.77;3.10;;;;;;;;;;4991794;28;20082;-64
2023/06/13 03:11:59;;;;;;;10.02;3.60;;;;;;;;;;4983975;28;20151;-64
2023/06/13 03:14:25;;;;;;;5.85;2.92;;;;;;;;;;4994413;28;20062;-63
2023/06/13 03:16:52;;;;;;;7.80;2.97;;;;;;;;;;4989015;28;20138;-65
2023/06/13 03:19:21;;;;;;;6.97;3.75;;;;;;;;;;4982688;28;20058;-65
2023/06/13 03:21:47;;;;;;;;;;;;;;;;;;4978561;28;20080;-65
2023/06/13 03:24:14;;;;;;;6.47;3.10;;;;;;;;;;4975341;28;19931;-65
2023/06/13 03:26:40;;;;;;;10.57;3.53;;;;;;;;;;4978802;28;20050;-65
2023/06/13 03:29:07;;;;;;;13.65;2.88;;;;;;;;;;4977336;28;20192;-64
2023/06/13 03:31:34;;;;;;;5.85;2.97;;;;;;;;;;4978567;28;20069;-65
2023/06/13 03:34:00;;;;;;;5.80;3.10;;;;;;;;;;4969187;28;20173;-65
2023/06/13 03:36:28;;;;;;;9.02;2.80;;;;;;;;;;4978028;28;20121;-63
2023/06/13 03:38:54;;;;;;;9.45;3.20;;;;;;;;;;4978505;28;20103;-64
2023/06/13 03:41:21;;;;;;;8.07;3.08;;;;;;;;;;4995216;28;20058;-64
2023/06/13 03:43:47;;;;;;;7.90;3.97;;;;;;;;;;4976649;28;20046;-65
2023/06/13 03:46:13;;;;;;;10.95;4.72;;;;;;;;;;4976336;28;20146;-65
2023/06/13 03:48:40;;;;;;;10.43;4.55;;;;;;;;;;4993478;28;20069;-64
2023/06/13 03:51:07;;;;;;;8.63;3.42;;;;;;;;;;4979345;28;20070;-64
2023/06/13 03:53:34;;;;;;;7.22;3.55;;;;;;;;;;4978364;28;20362;-64
2023/06/13 03:56:02;;;;;;;6.90;3.40;;;;;;;;;;4968100;28;20065;-65
2023/06/13 03:58:29;;;;;;;11.52;3.75;;;;;;;;;;4973025;28;20046;-63
2023/06/13 04:00:55;;;;;;;7.18;3.45;;;;;;;;;;4972138;28;20058;-64
2023/06/13 04:03:22;;;;;;;5.80;2.95;;;;;;;;;;4961267;28;20118;-63
2023/06/13 04:05:48;;;;;;;6.10;3.13;;;;;;;;;;4971662;28;20109;-65
2023/06/13 04:08:15;;;;;;;8.32;3.42;;;;;;;;;;4972213;28;20164;-64
2023/06/13 04:10:43;;;;;;;9.18;5.05;;;;;;;;;;4993539;28;20062;-64
2023/06/13 04:13:09;;;;;;;9.05;4.78;;;;;;;;;;4984890;28;20069;-64
2023/06/13 04:15:40;;;;;;;6.45;3.40;;;;;;;;;;4984831;28;20046;-64
2023/06/13 04:18:09;;;;;;;6.55;3.22;;;;;;;;;;4976163;28;20042;-64
2023/06/13 04:20:38;;;;;;;;;;;;;;;;;;5020941;28;20041;-65
2023/06/13 04:23:04;;;;;;;8.68;3.20;;;;;;;;;;5021355;28;19929;-65
2023/06/13 04:25:32;;;;;;;6.60;3.17;;;;;;;;;;5016330;28;20076;-66
2023/06/13 04:28:00;;;;;;;5.90;3.13;;;;;;;;;;5008686;28;20156;-67
2023/06/13 04:30:29;;;;;;;6.05;3.13;;;;;;;;;;5014822;28;20073;-66
2023/06/13 04:32:57;;;;;;;;;;;;;;;;;;5019132;28;20099;-66
2023/06/13 04:35:23;;;;;;;6.45;3.08;;;;;;;;;;4997347;28;19925;-64
2023/06/13 04:37:51;;;;;;;6.80;3.00;;;;;;;;;;5012065;28;20054;-66
2023/06/13 04:40:23;;;;;;;6.38;3.08;;;;;;;;;;5015215;28;21723;-65
2023/06/13 04:42:54;;;;;;;8.10;3.33;;;;;;;;;;4999950;28;20061;-63
2023/06/13 04:45:22;;;;;;;11.65;6.00;;;;;;;;;;5014919;28;20077;-63
2023/06/13 04:47:48;;;;;;;20.88;9.45;;;;;;;;;;4993906;28;20058;-66
2023/06/13 04:50:15;;;;;;;15.93;7.82;;;;;;;;;;5018524;28;20081;-65
2023/06/13 04:52:41;;;;;;;7.28;3.70;;;;;;;;;;5013432;28;20138;-65
2023/06/13 04:55:13;;;;;;;9.70;3.40;;;;;;;;;;5018570;28;20054;-65
2023/06/13 04:57:40;;;;;;;7.28;3.30;;;;;;;;;;5003374;28;20056;-65
2023/06/13 05:00:09;;;;;;;6.93;3.35;;;;;;;;;;4997549;28;20057;-64
2023/06/13 05:02:41;;;;;;;;;;;;;;;;;;5016083;28;20076;-65
2023/06/13 05:05:10;;;;;;;6.43;3.00;;;;;;;;;;5018612;28;19928;-65
2023/06/13 05:07:39;;;;;;;7.50;3.35;;;;;;;;;;4998151;28;20053;-64
2023/06/13 05:10:08;;;;;;;9.65;3.67;;;;;;;;;;5005715;28;20065;-65
2023/06/13 05:12:35;;;;;;;6.32;2.63;;;;;;;;;;4993187;28;20062;-65
2023/06/13 05:15:09;;;;;;;6.97;3.33;;;;;;;;;;4999422;28;20062;-64
2023/06/13 05:17:37;;;;;;;9.45;3.30;;;;;;;;;;4975884;28;20139;-64
2023/06/13 05:20:05;;;;;;;9.27;3.78;;;;;;;;;;5001959;28;20049;-64
2023/06/13 05:22:39;;;;;;;25.83;14.25;;;;;;;;;;4991305;28;20060;-63
2023/06/13 05:25:08;;;;;;;10.70;4.03;;;;;;;;;;4998105;28;20125;-65
2023/06/13 05:27:37;;;;;;;9.52;3.63;;;;;;;;;;4989978;28;20053;-65
2023/06/13 05:30:06;;;;;;;6.53;3.35;;;;;;;;;;5009593;28;20115;-67
2023/06/13 05:32:34;;;;;;;8.70;4.90;;;;;;;;;;5015868;28;20069;-64
2023/06/13 05:35:01;;;;;;;7.23;3.20;;;;;;;;;;5014398;28;20171;-64
2023/06/13 05:37:28;;;;;;;9.18;2.83;;;;;;;;;;4993978;28;20060;-64
2023/06/13 05:39:57;;;;;;;7.88;3.38;;;;;;;;;;4995321;28;20140;-64
2023/06/13 05:42:23;;;;;;;14.00;3.15;;;;;;;;;;4999075;28;20070;-66
2023/06/13 05:44:52;;;;;;;7.40;3.15;;;;;;;;;;4994346;28;20144;-65
2023/06/13 05:47:18;;;;;;;9.65;3.13;;;;;;;;;;5002497;28;20049;-64
2023/06/13 05:49:49;;;;;;;9.27;3.40;;;;;;;;;;5007817;28;20061;-65
2023/06/13 05:52:15;;;;;;;5.88;2.88;;;;;;;;;;4996412;28;20124;-64
2023/06/13 05:54:43;;;;;;;6.55;2.75;;;;;;;;;;4995213;28;20173;-66
2023/06/13 05:57:12;;;;;;;6.78;3.08;;;;;;;;;;4997615;28;20069;-64
2023/06/13 05:59:38;;;;;;;17.13;3.30;;;;;;;;;;4992514;28;20065;-67
2023/06/13 06:02:05;;;;;;;8.00;2.92;;;;;;;;;;4991844;28;20061;-67
2023/06/13 06:04:31;;;;;;;8.52;3.10;;;;;;;;;;4992363;28;20156;-66
2023/06/13 06:06:58;;;;;;;14.10;3.45;;;;;;;;;;5012883;28;20060;-64
2023/06/13 06:09:24;;;;;;;5.85;2.95;;;;;;;;;;4996963;28;20062;-67
2023/06/13 06:11:51;;;;;;;11.13;3.40;;;;;;;;;;4990973;28;20121;-67
2023/06/13 06:14:19;;;;;;;8.65;3.15;;;;;;;;;;4995432;28;20137;-64
2023/06/13 06:16:45;;;;;;;8.93;2.97;;;;;;;;;;4976400;28;20508;-68
2023/06/13 06:19:12;;;;;;;5.65;2.97;;;;;;;;;;4995289;28;20054;-67
2023/06/13 06:21:39;;;;;;;8.38;3.47;;;;;;;;;;4997404;28;20092;-66
2023/06/13 06:24:06;;;;;;;10.52;3.45;;;;;;;;;;4995634;28;20188;-66
2023/06/13 06:26:33;;;;;;;7.43;3.10;;;;;;;;;;5000067;28;20066;-65
2023/06/13 06:28:59;;;;;;;5.70;2.95;;;;;;;;;;5014425;28;20068;-64
2023/06/13 06:31:29;;;;;;;4.95;2.25;;;;;;;;;;4993721;28;20141;-65
2023/06/13 06:33:59;;;;;;;8.35;2.72;;;;;;;;;;5008885;28;20046;-66
2023/06/13 06:36:25;;;;;;;33.20;18.50;;;;;;;;;;5005105;28;20080;-67
2023/06/13 06:38:52;;;;;;;15.07;7.97;;;;;;;;;;5000824;28;20120;-66
2023/06/13 06:41:18;;;;;;;7.10;3.33;;;;;;;;;;4993377;28;20066;-66
2023/06/13 06:43:45;;;;;;;5.95;2.70;;;;;;;;;;4995658;28;20054;-66
2023/06/13 06:46:11;;;;;;;6.18;2.83;;;;;;;;;;4967271;28;20094;-66
2023/06/13 06:48:39;;;;;;;7.70;3.08;;;;;;;;;;5013712;28;20062;-66
2023/06/13 06:51:06;;;;;;;6.03;2.75;;;;;;;;;;4993051;28;20137;-67
2023/06/13 06:53:32;;;;;;;5.85;2.47;;;;;;;;;;4998723;28;20134;-66
2023/06/13 06:55:59;;;;;;;9.27;2.85;;;;;;;;;;5006633;28;20053;-67
2023/06/13 06:58:25;;;;;;;7.00;2.47;;;;;;;;;;5016979;28;20131;-67
2023/06/13 07:00:52;;;;;;;6.55;2.70;;;;;;;;;;5014087;28;20068;-67
2023/06/13 07:03:18;;;;;;;6.68;2.92;;;;;;;;;;5001989;28;20062;-67
2023/06/13 07:05:46;;;;;;;4.90;2.58;;;;;;;;;;5010687;28;20058;-66
2023/06/13 07:08:13;;;;;;;6.45;2.45;;;;;;;;;;4976904;28;20125;-66
2023/06/13 07:10:41;;;;;;;10.02;3.00;;;;;;;;;;4983258;28;20058;-67
2023/06/13 07:13:08;;;;;;;4.93;2.33;;;;;;;;;;4993100;28;20057;-66
2023/06/13 07:15:37;;;;;;;6.57;3.25;;;;;;;;;;4982215;28;20055;-65
2023/06/13 07:18:06;;;;;;;9.75;2.83;;;;;;;;;;4983840;28;20042;-64
2023/06/13 07:20:32;;;;;;;5.93;2.78;;;;;;;;;;4981583;28;20078;-64
2023/06/13 07:23:02;;;;;;;7.70;2.70;;;;;;;;;;4993391;28;20058;-65
2023/06/13 07:25:29;;;;;;;6.50;2.95;;;;;;;;;;4995639;28;20136;-65
2023/06/13 07:27:56;;;;;;;4.13;2.25;;;;;;;;;;4938450;28;20057;-65
2023/06/13 07:30:22;;;;;;;4.75;2.22;;;;;;;;;;4960802;28;20117;-65
2023/06/13 07:32:50;;;;;;;5.13;2.30;;;;;;;;;;5002120;28;20058;-65
2023/06/13 07:35:22;;;;;;;8.00;2.58;;;;;;;;;;4981247;28;20098;-65
2023/06/13 07:37:49;;;;;;;8.02;2.70;;;;;;;;;;4987726;28;20054;-65
2023/06/13 07:40:17;;;;;;;5.65;2.58;;;;;;;;;;4995143;28;20068;-65
2023/06/13 07:42:44;;;;;;;5.07;2.50;;;;;;;;;;4976376;28;20063;-66
2023/06/13 07:45:10;;;;;;;11.10;3.67;;;;;;;;;;4982560;28;20065;-65
2023/06/13 07:47:37;;;;;;;7.05;2.72;;;;;;;;;;4974019;28;20186;-65
2023/06/13 07:50:04;;;;;;;9.90;3.00;;;;;;;;;;4990493;28;20061;-65
2023/06/13 07:52:30;;;;;;;112.38;62.90;;;;;;;;;;4978453;28;20058;-64
2023/06/13 07:54:57;;;;;;;12.57;4.45;;;;;;;;;;4980513;28;20066;-66
2023/06/13 07:57:24;;;;;;;6.63;3.13;;;;;;;;;;4979326;28;20100;-65
2023/06/13 07:59:55;;;;;;;9.93;3.60;;;;;;;;;;4976051;28;20058;-66
2023/06/13 08:02:21;;;;;;;6.18;2.60;;;;;;;;;;4979952;28;20112;-65
2023/06/13 08:04:48;;;;;;;5.13;2.72;;;;;;;;;;4979636;28;20129;-65
2023/06/13 08:07:15;;;;;;;5.03;2.67;;;;;;;;;;4985514;28;20077;-66
2023/06/13 08:09:47;;;;;;;5.65;2.40;;;;;;;;;;4978867;28;20145;-66
2023/06/13 08:12:14;;;;;;;4.72;2.38;;;;;;;;;;4987867;28;20143;-65
2023/06/13 08:14:47;;;;;;;6.90;2.70;;;;;;;;;;4998816;28;20049;-66
2023/06/13 08:17:13;;;;;;;5.53;3.42;;;;;;;;;;5014726;28;20129;-65
2023/06/13 08:19:41;;;;;;;8.13;3.15;;;;;;;;;;5010112;28;20062;-65
2023/06/13 08:22:08;;;;;;;5.07;2.57;;;;;;;;;;4993598;28;20086;-64
2023/06/13 08:24:34;;;;;;;6.72;3.03;;;;;;;;;;4998471;28;20049;-67
2023/06/13 08:27:01;;;;;;;5.55;2.47;;;;;;;;;;4998127;28;20070;-64
2023/06/13 08:29:28;;;;;;;6.60;3.17;;;;;;;;;;4995789;28;20057;-65
2023/06/13 08:31:56;;;;;;;9.02;3.00;;;;;;;;;;4992852;28;20065;-66
2023/06/13 08:34:22;;;;;;;7.95;3.30;;;;;;;;;;4995720;28;20049;-64
2023/06/13 08:36:49;;;;;;;6.38;3.00;;;;;;;;;;4997457;28;20136;-67
2023/06/13 08:39:15;;;;;;;4.40;2.35;;;;;;;;;;4998358;28;20053;-65
2023/06/13 08:41:42;;;;;;;5.43;2.75;;;;;;;;;;4991966;28;20089;-65
2023/06/13 08:44:09;;;;;;;8.20;2.70;;;;;;;;;;4994054;28;20342;-65
2023/06/13 08:46:36;;;;;;;4.50;2.53;;;;;;;;;;4985491;28;20183;-65
2023/06/13 08:49:04;;;;;;;9.18;2.88;;;;;;;;;;5012929;28;20093;-65
2023/06/13 08:51:31;;;;;;;9.77;2.67;;;;;;;;;;4996324;28;20061;-65
2023/06/13 08:54:00;;;;;;;4.97;2.42;;;;;;;;;;4993663;28;20068;-66
2023/06/13 08:56:28;;;;;;;5.80;2.75;;;;;;;;;;5001611;28;20073;-64
2023/06/13 08:58:58;;;;;;;6.10;2.40;;;;;;;;;;4948836;28;20133;-65
2023/06/13 09:01:27;;;;;;;7.57;2.97;;;;;;;;;;4960386;28;20137;-65
2023/06/13 09:03:55;;;;;;;7.70;2.90;;;;;;;;;;4977226;28;20062;-66
2023/06/13 09:06:25;;;;;;;6.13;2.53;;;;;;;;;;4997018;28;20073;-65
2023/06/13 09:08:52;;;;;;;5.95;2.78;;;;;;;;;;4911672;28;20144;-65
2023/06/13 09:11:20;;;;;;;6.93;2.92;;;;;;;;;;4953476;28;20062;-65
2023/06/13 09:13:48;;;;;;;13.65;2.92;;;;;;;;;;4956431;28;20062;-64
2023/06/13 09:16:14;;;;;;;8.85;2.50;;;;;;;;;;4968837;28;20060;-64
2023/06/13 09:18:43;;;;;;;5.40;2.33;;;;;;;;;;4995402;28;20127;-67
2023/06/13 09:21:09;;;;;;;7.13;3.63;;;;;;;;;;4994171;28;20058;-64
2023/06/13 09:23:39;;;;;;;5.53;2.88;;;;;;;;;;4999474;28;20054;-64
2023/06/13 09:26:10;;;;;;;5.45;2.33;;;;;;;;;;4991796;28;20065;-67
2023/06/13 09:28:37;;;;;;;7.63;3.03;;;;;;;;;;5000278;28;20050;-67
2023/06/13 09:31:05;;;;;;;5.28;2.47;;;;;;;;;;4997628;28;20120;-67
2023/06/13 09:33:33;;;;;;;10.40;2.78;;;;;;;;;;4996385;28;20060;-67
2023/06/13 09:35:59;;;;;;;5.65;2.65;;;;;;;;;;4991291;28;20072;-68
2023/06/13 09:38:26;;;;;;;7.70;2.50;;;;;;;;;;4972853;28;20053;-67
2023/06/13 09:40:55;;;;;;;5.53;2.67;;;;;;;;;;5001554;28;20069;-68
2023/06/13 09:43:22;;;;;;;5.20;2.75;;;;;;;;;;4994093;28;20108;-68
2023/06/13 09:45:51;;;;;;;5.10;2.78;;;;;;;;;;4992303;28;20065;-70
2023/06/13 09:48:18;;;;;;;6.15;2.70;;;;;;;;;;4992751;28;20062;-67
2023/06/13 09:50:44;;;;;;;5.68;3.00;;;;;;;;;;4999493;28;20211;-67
2023/06/13 09:53:11;;;;;;;8.15;2.85;;;;;;;;;;4997603;28;20061;-68
2023/06/13 09:55:40;;;;;;;5.45;2.88;;;;;;;;;;4995873;28;20054;-67
2023/06/13 09:58:08;;;;;;;6.43;2.40;;;;;;;;;;4992804;28;20050;-68
2023/06/13 10:00:35;;;;;;;8.20;2.53;;;;;;;;;;4999307;28;20061;-67
2023/06/13 10:03:04;;;;;;;4.63;2.60;;;;;;;;;;4994228;28;20058;-67
2023/06/13 10:05:33;;;;;;;7.53;3.22;;;;;;;;;;5015331;28;20058;-67
2023/06/13 10:07:59;;;;;;;5.63;2.50;;;;;;;;;;4973861;28;20108;-67
2023/06/13 10:10:26;;;;;;;6.03;2.55;;;;;;;;;;4996286;28;20232;-67
2023/06/13 10:12:56;;;;;;;5.25;2.55;;;;;;;;;;5000013;28;20076;-66
2023/06/13 10:15:28;;;;;;;6.72;2.20;;;;;;;;;;4993185;28;20065;-68
2023/06/13 10:17:58;;;;;;;6.50;2.75;;;;;;;;;;4987499;28;20061;-67
2023/06/13 10:20:27;;;;;;;5.20;2.53;;;;;;;;;;4980996;28;20058;-67
2023/06/13 10:22:54;;;;;;;6.47;2.42;;;;;;;;;;4978463;28;20066;-67
2023/06/13 10:25:21;;;;;;;5.22;2.80;;;;;;;;;;4990651;28;20128;-67
2023/06/13 10:27:50;;;;;;;5.53;2.40;;;;;;;;;;4987840;28;20088;-68
2023/06/13 10:30:23;;;;;;;6.32;2.42;;;;;;;;;;4986244;28;20054;-67
2023/06/13 10:33:07;;;;;;;7.88;3.08;;;;;;;;;;4998930;28;20153;-67
2023/06/13 10:35:52;;;;;;;8.30;4.03;;;;;;;;;;5000692;28;20140;-68
2023/06/13 10:38:33;;;;;;;7.30;3.33;;;;;;;;;;5002665;28;20065;-65
2023/06/13 10:41:24;;;;;;;7.15;2.33;;;;;;;;;;5014185;28;20136;-64
2023/06/13 10:43:54;;;;;;;4.97;2.60;;;;;;;;;;5012270;28;20058;-66
2023/06/13 10:46:20;;;;;;;4.28;2.35;;;;;;;;;;4998990;28;20192;-67
2023/06/13 10:48:50;;;;;;;5.90;2.10;;;;;;;;;;4997175;28;20053;-68
2023/06/13 10:51:21;;;;;;;5.10;2.75;;;;;;;;;;4996575;28;20140;-67
2023/06/13 10:53:52;;;;;;;5.18;2.80;;;;;;;;;;4998140;28;20057;-68
2023/06/13 10:56:27;;;;;;;6.28;2.95;;;;;;;;;;4996740;28;20066;-67
2023/06/13 10:58:59;;;;;;;6.68;3.08;;;;;;;;;;4999847;28;20113;-67
2023/06/13 11:01:29;;;;;;;4.90;2.75;;;;;;;;;;5001033;28;20073;-65
2023/06/13 11:04:05;;;;;;;7.63;2.53;;;;;;;;;;4998383;28;20054;-66
2023/06/13 11:06:33;;;;;;;12.27;5.18;;;;;;;;;;5009107;28;20117;-66
2023/06/13 11:09:23;;;;;;;6.15;3.30;;;;;;;;;;5008420;28;20139;-67
2023/06/13 11:11:52;;;;;;;5.35;2.80;;;;;;;;;;4982096;28;20056;-68
2023/06/13 11:14:22;;;;;;;4.68;2.58;;;;;;;;;;5005795;28;20086;-66
2023/06/13 11:16:49;;;;;;;4.22;2.30;;;;;;;;;;4978047;28;20153;-65
2023/06/13 11:19:15;;;;;;;4.15;1.90;;;;;;;;;;4996047;28;20048;-66
2023/06/13 11:21:50;;;;;;;6.97;2.63;;;;;;;;;;5002291;28;20108;-66
2023/06/13 11:24:16;;;;;;;8.50;2.78;;;;;;;;;;5004523;28;20127;-67
2023/06/13 11:26:44;;;;;;;6.28;2.95;;;;;;;;;;4982621;28;20133;-67
2023/06/13 11:29:10;;;;;;;5.75;2.97;;;;;;;;;;5018440;28;20049;-67
2023/06/13 11:31:38;;;;;;;6.38;2.85;;;;;;;;;;5021312;28;20053;-67
2023/06/13 11:34:05;;;;;;;6.10;2.35;;;;;;;;;;5001183;28;20058;-68
2023/06/13 11:36:32;;;;;;;5.28;2.65;;;;;;;;;;5000952;28;20068;-67
2023/06/13 11:39:03;;;;;;;5.25;2.85;;;;;;;;;;4982294;28;20085;-66
2023/06/13 11:41:29;;;;;;;6.47;2.50;;;;;;;;;;5016992;28;20089;-66
2023/06/13 11:43:58;;;;;;;7.70;3.08;;;;;;;;;;5012679;28;20053;-66
2023/06/13 11:46:27;;;;;;;5.85;2.92;;;;;;;;;;5018791;28;20160;-66
2023/06/13 11:48:55;;;;;;;8.40;2.90;;;;;;;;;;4928188;28;20059;-65
2023/06/13 11:51:21;;;;;;;;;;;;;;;;;;4982723;28;20062;-67
2023/06/13 11:53:52;;;;;;;6.72;2.97;;;;;;;;;;4963319;28;19928;-70
2023/06/13 11:56:23;;;;;;;5.43;2.38;;;;;;;;;;4964694;28;20361;-67
2023/06/13 11:58:50;;;;;;;6.35;2.83;;;;;;;;;;4949397;28;20097;-67
2023/06/13 12:01:17;;;;;;;5.45;3.10;;;;;;;;;;4993298;28;20058;-67
2023/06/13 12:03:45;;;;;;;8.23;2.80;;;;;;;;;;5000900;28;20119;-67
2023/06/13 12:06:12;;;;;;;4.60;2.40;;;;;;;;;;4996559;28;20057;-67
2023/06/13 12:08:40;;;;;;;7.97;2.92;;;;;;;;;;5002604;28;20057;-66
2023/06/13 12:11:06;;;;;;;6.90;3.25;;;;;;;;;;5037026;28;20068;-66
2023/06/13 12:13:34;;;;;;;5.28;2.92;;;;;;;;;;5016156;28;20056;-66
2023/06/13 12:16:01;;;;;;;18.02;8.57;;;;;;;;;;4994846;28;20083;-67
2023/06/13 12:18:32;;;;;;;6.30;3.30;;;;;;;;;;4996334;28;20053;-67
2023/06/13 12:21:01;;;;;;;8.52;3.10;;;;;;;;;;4987602;28;20062;-66
2023/06/13 12:23:43;;;;;;;8.48;3.13;;;;;;;;;;5003094;28;20053;-68
2023/06/13 12:26:17;;;;;;;7.78;2.95;;;;;;;;;;5016787;28;20060;-65
2023/06/13 12:28:47;;;;;;;3.88;2.50;;;;;;;;;;5015157;28;20056;-65
2023/06/13 12:31:13;;;;;;;6.32;3.15;;;;;;;;;;5020453;28;20065;-65
2023/06/13 12:33:44;;;;;;;7.18;3.22;;;;;;;;;;4999181;28;20059;-65
2023/06/13 12:36:28;;;;;;;4.90;3.13;;;;;;;;;;5018094;28;20079;-65
2023/06/13 12:42:03;;;;;;;5.55;3.10;;;;;;;;;;4982790;28;20057;-65
2023/06/13 12:44:33;;;;;;;9.68;3.50;;;;;;;;;;4987974;28;20049;-65
2023/06/13 12:47:03;;;;;;;6.35;2.88;;;;;;;;;;5002426;28;20097;-66
2023/06/13 12:49:38;;;;;;;4.63;2.35;;;;;;;;;;4987087;28;20096;-66
2023/06/13 12:52:05;;;;;;;6.18;3.00;;;;;;;;;;5011685;28;20097;-67
2023/06/13 12:57:57;;;;;;;4.90;2.45;;;;;;;;;;4912116;29;20206;-68
2023/06/13 13:00:25;;;;;;;6.18;3.10;;;;;;;;;;4916487;29;20090;-68
2023/06/13 13:02:52;;;;;;;10.88;4.38;;;;;;;;;;4974013;28;20061;-66
2023/06/13 13:05:18;;;;;;;9.32;4.43;;;;;;;;;;5016167;28;20099;-64
2023/06/13 13:07:47;;;;;;;8.93;4.10;;;;;;;;;;4999830;28;20137;-65
2023/06/13 13:10:14;;;;;;;6.30;3.25;;;;;;;;;;4996461;28;20145;-65
2023/06/13 13:12:41;;;;;;;6.25;2.90;;;;;;;;;;5001345;28;20116;-66
2023/06/13 13:15:08;;;;;;;5.67;3.50;;;;;;;;;;4997802;28;20076;-66
2023/06/13 13:17:42;;;;;;;8.65;3.03;;;;;;;;;;4988268;28;20062;-66
2023/06/13 13:20:10;;;;;;;7.90;3.28;;;;;;;;;;5008451;28;20093;-67
2023/06/13 13:22:36;;;;;;;5.55;2.72;;;;;;;;;;4996087;28;20066;-67
2023/06/13 13:25:03;;;;;;;8.18;2.72;;;;;;;;;;4999457;28;20057;-67
2023/06/13 13:27:32;;;;;;;7.15;3.20;;;;;;;;;;4985121;28;20062;-68
2023/06/13 13:29:58;;;;;;;6.18;3.40;;;;;;;;;;4991716;28;20060;-68
2023/06/13 13:32:25;;;;;;;7.15;3.20;;;;;;;;;;4994982;28;20060;-68
2023/06/13 13:34:52;;;;;;;10.52;3.42;;;;;;;;;;4996226;28;20089;-66
2023/06/13 13:37:19;;;;;;;7.35;3.08;;;;;;;;;;4995301;28;20153;-66
2023/06/13 13:39:46;;;;;;;5.40;2.73;;;;;;;;;;4995506;28;20056;-65
2023/06/13 13:42:12;;;;;;;8.27;3.80;;;;;;;;;;4992060;28;20054;-66
2023/06/13 13:44:39;;;;;;;6.88;3.17;;;;;;;;;;4998935;28;20195;-67
2023/06/13 13:47:05;;;;;;;5.55;2.67;;;;;;;;;;4994904;28;20064;-65
2023/06/13 13:49:32;;;;;;;7.63;2.63;;;;;;;;;;4969512;28;20141;-67
2023/06/13 13:52:00;;;;;;;9.53;3.90;;;;;;;;;;4988537;28;20056;-67
2023/06/13 13:54:26;;;;;;;6.45;3.45;;;;;;;;;;4998756;28;20149;-67
2023/06/13 13:56:53;;;;;;;7.50;3.35;;;;;;;;;;4993632;28;20072;-67
2023/06/13 13:59:19;;;;;;;11.73;3.35;;;;;;;;;;4956251;28;20140;-66
2023/06/13 14:01:47;;;;;;;9.98;3.33;;;;;;;;;;4996946;28;20062;-67
2023/06/13 14:04:15;;;;;;;7.32;3.28;;;;;;;;;;4995210;28;20061;-66
2023/06/13 14:06:41;;;;;;;8.23;3.15;;;;;;;;;;5005212;28;20059;-66
2023/06/13 14:09:11;;;;;;;9.00;3.83;;;;;;;;;;4994737;28;20061;-66
2023/06/13 14:11:37;;;;;;;8.27;2.90;;;;;;;;;;5014469;28;20152;-66
2023/06/13 14:14:03;;;;;;;6.15;2.88;;;;;;;;;;5012310;28;20154;-66
2023/06/13 14:16:30;;;;;;;4.95;2.75;;;;;;;;;;4999881;28;20053;-67
2023/06/13 14:18:57;;;;;;;9.43;2.65;;;;;;;;;;4977265;28;20052;-67
2023/06/13 14:21:25;;;;;;;10.70;3.28;;;;;;;;;;5017092;28;20055;-67
2023/06/13 14:23:53;;;;;;;5.20;2.58;;;;;;;;;;5008753;28;20104;-68
2023/06/13 14:26:22;;;;;;;4.80;2.88;;;;;;;;;;5019114;28;20121;-67
2023/06/13 14:28:48;;;;;;;5.22;2.78;;;;;;;;;;4991211;28;20068;-67
2023/06/13 14:31:15;;;;;;;5.55;2.80;;;;;;;;;;5017081;28;20171;-66
2023/06/13 14:33:44;;;;;;;7.03;2.67;;;;;;;;;;5012443;28;20083;-67
2023/06/13 14:36:10;;;;;;;6.32;3.22;;;;;;;;;;5013000;28;20065;-67
2023/06/13 14:38:38;;;;;;;6.68;2.78;;;;;;;;;;5009261;28;20172;-67
2023/06/13 14:41:05;;;;;;;8.00;2.90;;;;;;;;;;5016156;28;20076;-68
2023/06/13 14:43:33;;;;;;;7.40;3.20;;;;;;;;;;5016955;28;20071;-67
2023/06/13 14:46:00;;;;;;;4.35;2.85;;;;;;;;;;5008782;28;20062;-66
2023/06/13 14:48:26;;;;;;;9.00;3.40;;;;;;;;;;5016069;28;20057;-67
2023/06/13 14:50:56;;;;;;;6.60;3.00;;;;;;;;;;4994764;28;20071;-67
2023/06/13 14:53:22;;;;;;;6.05;3.03;;;;;;;;;;5012568;28;20228;-67
2023/06/13 14:55:49;;;;;;;8.50;3.20;;;;;;;;;;5002453;28;20057;-68
2023/06/13 14:58:15;;;;;;;6.95;3.13;;;;;;;;;;5009183;28;20117;-67
2023/06/13 15:00:43;;;;;;;8.73;3.33;;;;;;;;;;4995928;28;20053;-69
2023/06/13 15:03:09;;;;;;;6.03;3.17;;;;;;;;;;4999333;28;20099;-66
2023/06/13 15:05:36;;;;;;;5.40;3.00;;;;;;;;;;4996613;28;20053;-67
2023/06/13 15:08:03;;;;;;;7.10;3.40;;;;;;;;;;5006923;28;20056;-67
2023/06/13 15:10:29;;;;;;;4.30;2.50;;;;;;;;;;4996381;28;20057;-67
2023/06/13 15:12:55;;;;;;;5.78;3.10;;;;;;;;;;5016278;28;20065;-67
2023/06/13 15:15:22;;;;;;;5.53;3.15;;;;;;;;;;5016276;28;20068;-67
2023/06/13 15:17:51;;;;;;;9.20;3.20;;;;;;;;;;4983345;28;20057;-68
2023/06/13 15:20:18;;;;;;;9.55;3.47;;;;;;;;;;5017113;28;20168;-66
2023/06/13 15:22:44;;;;;;;25.60;14.32;;;;;;;;;;5020854;28;20065;-66
2023/06/13 15:25:11;;;;;;;6.80;3.67;;;;;;;;;;5018565;28;20166;-68
2023/06/13 15:27:38;;;;;;;8.98;2.97;;;;;;;;;;4998534;28;20079;-67
2023/06/13 15:30:05;;;;;;;7.93;3.50;;;;;;;;;;4992905;28;20068;-66
2023/06/13 15:32:31;;;;;;;6.25;3.47;;;;;;;;;;5031720;28;20096;-67
2023/06/13 15:34:59;;;;;;;6.50;3.15;;;;;;;;;;5003219;28;20066;-67
2023/06/13 15:37:26;;;;;;;7.10;2.92;;;;;;;;;;5007401;28;20061;-67
2023/06/13 15:39:53;;;;;;;8.68;3.10;;;;;;;;;;5004625;28;20045;-67
2023/06/13 15:42:19;;;;;;;8.05;2.72;;;;;;;;;;5016460;28;20057;-66
2023/06/13 15:44:45;;;;;;;7.38;3.40;;;;;;;;;;4998998;28;20177;-66
2023/06/13 15:47:12;;;;;;;5.03;2.75;;;;;;;;;;5006565;28;20085;-68
2023/06/13 15:49:38;;;;;;;5.18;2.80;;;;;;;;;;5016496;28;20080;-66
2023/06/13 15:52:07;;;;;;;7.30;2.95;;;;;;;;;;5006193;28;20281;-66
2023/06/13 15:54:33;;;;;;;5.47;2.67;;;;;;;;;;5022360;28;20075;-66
2023/06/13 15:57:00;;;;;;;5.03;2.63;;;;;;;;;;5017431;28;20148;-66
2023/06/13 15:59:29;;;;;;;4.20;2.27;;;;;;;;;;4996600;28;20068;-66
2023/06/13 16:01:56;;;;;;;5.90;2.85;;;;;;;;;;5012483;28;20054;-66
2023/06/13 16:04:24;;;;;;;5.28;2.83;;;;;;;;;;5020124;28;20096;-68
2023/06/13 16:06:50;;;;;;;;;;;;;;;;;;5022255;28;20112;-69
2023/06/13 16:09:22;;;;;;;12.85;3.05;;;;;;;;;;4977493;28;20011;-69
2023/06/13 16:11:48;;;;;;;7.07;2.83;;;;;;;;;;4994754;28;20049;-68
2023/06/13 16:14:15;;;;;;;8.73;3.50;;;;;;;;;;4992969;28;20152;-68
2023/06/13 16:16:42;;;;;;;5.03;2.73;;;;;;;;;;5019149;28;20069;-68
2023/06/13 16:19:11;;;;;;;5.20;2.83;;;;;;;;;;4993202;28;22352;-69
2023/06/13 16:21:37;;;;;;;5.85;3.30;;;;;;;;;;4972532;28;20048;-68
2023/06/13 16:24:05;;;;;;;6.18;2.92;;;;;;;;;;5001208;28;20053;-68
2023/06/13 16:26:37;;;;;;;7.10;2.88;;;;;;;;;;4995117;28;20070;-69
2023/06/13 16:29:04;;;;;;;6.35;2.75;;;;;;;;;;5008619;28;20100;-69
2023/06/13 16:31:30;;;;;;;5.65;2.72;;;;;;;;;;4998365;28;20065;-69
2023/06/13 16:33:57;;;;;;;9.95;3.30;;;;;;;;;;5016592;28;20061;-69
2023/06/13 16:36:24;;;;;;;7.20;3.05;;;;;;;;;;5013589;28;20088;-70
2023/06/13 16:38:51;;;;;;;5.20;3.13;;;;;;;;;;5017581;28;20064;-68
2023/06/13 16:41:17;;;;;;;8.85;3.10;;;;;;;;;;5021311;28;20147;-68
2023/06/13 16:43:45;;;;;;;7.13;4.20;;;;;;;;;;5002581;28;20053;-68
2023/06/13 16:46:12;;;;;;;12.50;7.57;;;;;;;;;;5018418;28;20115;-68
2023/06/13 16:48:41;;;;;;;6.57;3.40;;;;;;;;;;5016687;28;20069;-68
2023/06/13 16:51:08;;;;;;;5.35;3.10;;;;;;;;;;5020530;28;20053;-66
2023/06/13 16:53:37;;;;;;;6.15;2.85;;;;;;;;;;5008048;28;20083;-69
2023/06/13 16:56:04;;;;;;;6.72;2.85;;;;;;;;;;5017819;28;20061;-68
2023/06/13 16:58:33;;;;;;;10.90;3.20;;;;;;;;;;4997590;28;20224;-68
2023/06/13 17:01:01;;;;;;;8.35;2.78;;;;;;;;;;4997617;28;20060;-68